Time;durP1;ratioP1;P1;durP2;ratioP2;P2;SDS_P1;SDS_P2;PMS_P1;PMS_P2;Temp;Humidity;BMP_temperature;BMP_pressure;BME280_temperature;BME280_humidity;BME280_pressure;Samples;Min_cycle;Max_cycle;Signal;HPM_P1;HPM_P2
2022/02/04 00:30:47;;;;;;;15.43;6.03;;;0.10;99.90;;;;;;21144794;28;20043;-46
2022/02/04 00:40:54;;;;;;;15.57;6.30;;;0.00;99.90;;;;;;21118328;28;20112;-46
2022/02/04 00:51:04;;;;;;;12.68;6.18;;;0.10;99.90;;;;;;21099843;28;20070;-46
2022/02/04 01:32:10;;;;;;;19.83;8.80;;;0.00;99.90;;;;;;21134134;28;20032;-48
2022/02/04 01:42:13;;;;;;;20.45;10.00;;;-0.10;99.90;;;;;;21110462;28;20691;-45
2022/02/04 01:52:16;;;;;;;20.52;10.05;;;-0.10;99.90;;;;;;21080685;28;20445;-46
2022/02/04 02:02:18;;;;;;;19.08;9.45;;;-0.30;99.90;;;;;;21120551;28;20080;-46
2022/02/04 02:12:24;;;;;;;23.23;12.05;;;-0.50;99.90;;;;;;21150809;28;20052;-46
2022/02/04 02:33:25;;;;;;;25.42;12.85;;;-0.70;99.90;;;;;;21109194;28;20116;-45
2022/02/04 03:04:15;;;;;;;23.23;12.95;;;-0.70;99.90;;;;;;20956666;28;20282;-47
2022/02/04 03:14:18;;;;;;;26.48;12.05;;;-0.40;99.90;;;;;;20956741;28;20079;-46
2022/02/04 03:24:23;;;;;;;24.48;12.20;;;-0.70;99.90;;;;;;21061424;28;20052;-46
2022/02/04 03:34:26;;;;;;;32.05;14.45;;;-0.70;99.90;;;;;;21112351;28;20837;-45
2022/02/04 03:44:28;;;;;;;28.08;12.93;;;-0.30;99.90;;;;;;21086775;28;20085;-46
2022/02/04 03:54:30;;;;;;;23.25;12.43;;;0.00;99.90;;;;;;21087636;28;20054;-47
2022/02/04 04:04:34;;;;;;;22.27;12.52;;;0.10;99.90;;;;;;21081730;28;20572;-46
2022/02/04 04:14:37;;;;;;;21.60;11.38;;;0.20;99.90;;;;;;21130422;28;20452;-46
2022/02/04 04:24:40;;;;;;;26.15;13.65;;;0.20;99.90;;;;;;21097120;28;20036;-46
2022/02/04 04:34:43;;;;;;;25.90;12.30;;;0.00;99.90;;;;;;21094190;28;20556;-46
2022/02/04 04:45:11;;;;;;;34.85;16.85;;;0.20;99.90;;;;;;21120834;28;20449;-45
2022/02/04 05:36:42;;;;;;;40.20;22.53;;;-0.40;99.90;;;;;;21087202;28;20043;-45
2022/02/04 05:46:50;;;;;;;41.05;22.30;;;-0.40;99.90;;;;;;21087369;28;20044;-45
2022/02/04 06:27:27;;;;;;;45.65;23.23;;;-0.20;99.90;;;;;;21141217;28;20036;-45
2022/02/04 06:37:30;;;;;;;48.25;23.75;;;-0.10;99.90;;;;;;21153561;28;20097;-48
2022/02/04 06:47:32;;;;;;;55.80;27.15;;;-0.20;99.90;;;;;;21111762;28;20040;-47
2022/02/04 06:57:35;;;;;;;44.78;22.73;;;-0.20;99.90;;;;;;21113830;28;20032;-46
2022/02/04 07:07:40;;;;;;;24.70;13.65;;;0.40;99.90;;;;;;21092695;28;20415;-47
2022/02/04 07:17:59;;;;;;;28.38;16.15;;;0.80;99.90;;;;;;21106384;28;20079;-45
2022/02/04 07:28:02;;;;;;;42.40;23.75;;;1.40;99.90;;;;;;21099676;28;20024;-47
2022/02/04 07:48:27;;;;;;;36.50;19.60;;;0.80;99.90;;;;;;21098749;28;20040;-46
2022/02/04 07:58:30;;;;;;;37.25;20.40;;;1.40;99.90;;;;;;21060652;28;20093;-46
2022/02/04 09:09:56;;;;;;;10.30;6.45;;;4.70;99.90;;;;;;21157948;28;20564;-47
2022/02/04 09:29:58;;;;;;;18.77;11.55;;;5.90;99.90;;;;;;21159154;28;20061;-46
2022/02/04 09:40:02;;;;;;;17.90;10.40;;;6.30;99.90;;;;;;21104435;28;20093;-47
2022/02/04 09:50:18;;;;;;;19.90;10.95;;;6.40;99.90;;;;;;21097526;28;20044;-46
2022/02/04 10:11:29;;;;;;;18.92;10.35;;;4.60;99.90;;;;;;21086773;28;20453;-47
2022/02/04 10:21:11;;;;;;;19.10;10.65;;;4.30;99.90;;;;;;21119851;28;20480;-49
2022/02/04 10:31:24;;;;;;;20.05;11.13;;;4.10;99.90;;;;;;21133158;28;20089;-46
2022/02/04 10:41:32;;;;;;;18.70;12.07;;;4.10;99.90;;;;;;21115998;28;20039;-46
2022/02/04 11:53:55;;;;;;;31.75;17.45;;;3.60;99.90;;;;;;21103258;28;20039;-45
2022/02/04 12:04:18;;;;;;;28.83;16.83;;;3.20;99.90;;;;;;21093145;28;20089;-46
2022/02/04 12:14:30;;;;;;;30.08;15.55;;;3.10;99.90;;;;;;21098796;28;20052;-47
2022/02/04 12:24:42;;;;;;;27.98;15.25;;;3.60;99.90;;;;;;21105237;28;20066;-45
2022/02/04 12:34:49;;;;;;;30.13;14.82;;;4.40;99.90;;;;;;21134856;28;20032;-48
2022/02/04 12:44:52;;;;;;;30.15;15.05;;;4.90;99.90;;;;;;21071020;28;20032;-45
2022/02/04 12:55:08;;;;;;;26.50;15.00;;;5.60;99.90;;;;;;21111485;28;20060;-46
2022/02/04 13:15:37;;;;;;;24.85;14.05;;;5.40;99.90;;;;;;21094838;28;20096;-44
2022/02/04 13:25:48;;;;;;;25.65;14.80;;;5.40;99.90;;;;;;21079587;28;20044;-42
2022/02/04 13:36:04;;;;;;;29.73;16.05;;;5.60;99.90;;;;;;21072246;28;20054;-44
2022/02/04 13:46:19;;;;;;;25.83;14.15;;;5.40;99.90;;;;;;21064155;28;20064;-44
2022/02/04 14:07:10;;;;;;;25.67;14.15;;;5.10;99.90;;;;;;20875948;28;20064;-42
2022/02/04 14:17:13;;;;;;;25.33;14.07;;;4.50;99.90;;;;;;20834735;28;20134;-43
2022/02/04 14:27:16;;;;;;;26.83;15.25;;;4.30;99.90;;;;;;20853093;28;20106;-43
2022/02/04 14:37:43;;;;;;;24.60;14.23;;;4.40;99.90;;;;;;20904977;28;20060;-44
2022/02/04 15:08:29;;;;;;;94.80;24.55;;;3.70;99.90;;;;;;21056993;28;20092;-43
2022/02/04 15:18:35;;;;;;;175.90;28.00;;;3.80;99.90;;;;;;21058102;28;20090;-44
2022/02/04 15:28:46;;;;;;;84.82;22.85;;;3.30;99.90;;;;;;21060462;28;20490;-44
2022/02/04 15:38:48;;;;;;;126.53;25.07;;;2.90;99.90;;;;;;21057061;28;20067;-44
2022/02/04 15:49:09;;;;;;;133.35;26.15;;;2.70;99.90;;;;;;21057184;28;20317;-44
2022/02/04 16:09:23;;;;;;;38.60;21.70;;;2.20;99.90;;;;;;21080893;28;20160;-43
2022/02/04 16:19:28;;;;;;;105.90;25.42;;;1.70;99.90;;;;;;21092472;28;20052;-45
2022/02/04 16:29:39;;;;;;;69.03;26.27;;;1.40;99.90;;;;;;21127598;28;20056;-44
2022/02/04 16:39:44;;;;;;;29.73;17.20;;;1.30;99.90;;;;;;21091855;28;20369;-44
2022/02/04 16:49:48;;;;;;;54.90;25.60;;;0.40;99.90;;;;;;21106806;28;20036;-44
2022/02/04 16:59:56;;;;;;;62.90;30.00;;;0.10;99.90;;;;;;21108006;28;20097;-46
2022/02/04 17:10:00;;;;;;;24.92;11.95;;;0.40;99.90;;;;;;21109315;28;20032;-45
2022/02/04 17:20:11;;;;;;;31.27;16.95;;;0.10;99.90;;;;;;21087550;28;20036;-45
2022/02/04 17:30:15;;;;;;;25.70;13.38;;;-0.30;99.90;;;;;;21096491;28;20117;-45
2022/02/04 17:40:19;;;;;;;24.70;14.15;;;-0.60;99.90;;;;;;21090147;28;20050;-46
2022/02/04 17:50:28;;;;;;;6.50;3.90;;;-0.60;99.90;;;;;;21106595;28;20399;-45
2022/02/04 18:10:54;;;;;;;7.63;3.88;;;-0.80;99.90;;;;;;21122052;28;20301;-45
2022/02/04 18:21:01;;;;;;;8.25;4.03;;;-0.60;99.90;;;;;;21121518;28;20039;-47
2022/02/04 18:31:04;;;;;;;9.57;4.25;;;-0.50;99.90;;;;;;21119053;28;20787;-45
2022/02/04 19:01:32;;;;;;;11.63;5.88;;;-0.80;99.90;;;;;;20940850;28;20496;-46
2022/02/04 19:11:49;;;;;;;13.90;8.60;;;-1.10;99.90;;;;;;20897184;28;20080;-45
2022/02/04 19:32:02;;;;;;;13.40;7.80;;;-1.10;99.90;;;;;;21125969;28;20035;-52
2022/02/04 19:42:24;;;;;;;45.85;18.58;;;-1.30;99.90;;;;;;21072220;28;20069;-53
2022/02/04 20:23:36;;;;;;;22.67;10.35;;;-1.60;99.90;;;;;;21096435;28;20040;-48
2022/02/04 20:33:38;;;;;;;53.35;20.42;;;-1.30;99.90;;;;;;21091718;28;20039;-45
2022/02/04 20:43:41;;;;;;;25.88;15.13;;;-1.30;99.90;;;;;;21119408;28;20032;-45
2022/02/04 20:53:43;;;;;;;33.78;15.02;;;-1.20;99.90;;;;;;21108872;28;20036;-48
2022/02/04 21:03:47;;;;;;;24.23;12.50;;;-1.30;99.90;;;;;;21128020;28;20043;-47
2022/02/04 21:13:51;;;;;;;23.50;12.02;;;-1.50;99.90;;;;;;21121088;28;20044;-46
2022/02/04 21:23:54;;;;;;;21.88;11.13;;;-1.50;99.90;;;;;;21125916;28;20035;-47
2022/02/04 21:36:53;;;;;;;25.70;12.73;;;-1.50;99.90;;;;;;21096487;28;20321;-46
2022/02/04 21:44:32;;;;;;;19.67;10.57;;;-1.40;99.90;;;;;;21101709;28;20036;-45
2022/02/04 21:54:34;;;;;;;32.65;14.15;;;-1.40;99.90;;;;;;21126961;28;20040;-45
2022/02/04 22:04:38;;;;;;;19.00;9.60;;;-0.90;99.90;;;;;;21090292;28;20105;-46
2022/02/04 22:24:52;;;;;;;19.65;10.00;;;-1.20;99.90;;;;;;21119927;28;20556;-44
2022/02/04 22:35:08;;;;;;;20.75;10.73;;;-1.30;99.90;;;;;;21119226;28;20498;-44
2022/02/04 22:55:43;;;;;;;20.75;10.32;;;-1.10;99.90;;;;;;21110063;28;20436;-44
2022/02/04 23:05:46;;;;;;;23.58;11.70;;;-0.90;99.90;;;;;;21108102;28;20117;-45
2022/02/04 23:15:54;;;;;;;17.90;9.60;;;-0.80;99.90;;;;;;21110539;28;20105;-45
2022/02/04 23:26:06;;;;;;;18.98;9.80;;;-0.90;99.90;;;;;;21116561;28;20052;-47
2022/02/04 23:46:52;;;;;;;;;;;-0.60;99.90;;;;;;21079499;28;20484;-47
2022/02/04 23:56:55;;;;;;;20.77;12.00;;;-0.80;99.90;;;;;;21096762;28;20408;-44
